sensor_id;sensor_type;location;lat;lon;timestamp;P1;durP1;ratioP1;P2;durP2;ratioP2
35745;SDS011;21870;42.812;74.628;2024-02-23T00:01:17;12.38;;;8.75;;
35745;SDS011;21870;42.812;74.628;2024-02-23T00:03:43;9.57;;;7.40;;
35745;SDS011;21870;42.812;74.628;2024-02-23T00:06:09;12.40;;;8.30;;
35745;SDS011;21870;42.812;74.628;2024-02-23T00:08:35;11.95;;;7.80;;
35745;SDS011;21870;42.812;74.628;2024-02-23T00:11:03;8.75;;;7.18;;
35745;SDS011;21870;42.812;74.628;2024-02-23T00:13:29;9.50;;;7.13;;
35745;SDS011;21870;42.812;74.628;2024-02-23T00:15:55;9.13;;;7.22;;
35745;SDS011;21870;42.812;74.628;2024-02-23T00:18:21;8.60;;;6.97;;
35745;SDS011;21870;42.812;74.628;2024-02-23T00:20:47;8.32;;;7.40;;
35745;SDS011;21870;42.812;74.628;2024-02-23T00:23:13;10.73;;;8.23;;
35745;SDS011;21870;42.812;74.628;2024-02-23T00:25:39;8.40;;;7.28;;
35745;SDS011;21870;42.812;74.628;2024-02-23T00:28:05;9.80;;;7.75;;
35745;SDS011;21870;42.812;74.628;2024-02-23T00:30:31;13.18;;;8.77;;
35745;SDS011;21870;42.812;74.628;2024-02-23T00:32:57;11.45;;;8.57;;
35745;SDS011;21870;42.812;74.628;2024-02-23T00:35:23;11.43;;;8.07;;
35745;SDS011;21870;42.812;74.628;2024-02-23T00:37:49;10.90;;;8.52;;
35745;SDS011;21870;42.812;74.628;2024-02-23T00:40:16;10.95;;;8.48;;
35745;SDS011;21870;42.812;74.628;2024-02-23T00:42:42;10.63;;;8.32;;
35745;SDS011;21870;42.812;74.628;2024-02-23T00:45:08;10.18;;;7.97;;
35745;SDS011;21870;42.812;74.628;2024-02-23T00:47:34;11.95;;;8.55;;
35745;SDS011;21870;42.812;74.628;2024-02-23T00:50:03;11.18;;;8.07;;
35745;SDS011;21870;42.812;74.628;2024-02-23T00:52:29;9.35;;;7.68;;
35745;SDS011;21870;42.812;74.628;2024-02-23T00:54:55;9.10;;;7.53;;
35745;SDS011;21870;42.812;74.628;2024-02-23T00:57:21;10.15;;;8.20;;
35745;SDS011;21870;42.812;74.628;2024-02-23T00:59:52;9.02;;;8.05;;
35745;SDS011;21870;42.812;74.628;2024-02-23T01:02:18;11.05;;;8.10;;
35745;SDS011;21870;42.812;74.628;2024-02-23T01:04:44;13.15;;;8.43;;
35745;SDS011;21870;42.812;74.628;2024-02-23T01:07:10;10.68;;;9.52;;
35745;SDS011;21870;42.812;74.628;2024-02-23T01:09:36;12.00;;;8.90;;
35745;SDS011;21870;42.812;74.628;2024-02-23T01:12:02;10.50;;;9.00;;
35745;SDS011;21870;42.812;74.628;2024-02-23T01:14:29;10.93;;;7.78;;
35745;SDS011;21870;42.812;74.628;2024-02-23T01:16:55;11.38;;;8.82;;
35745;SDS011;21870;42.812;74.628;2024-02-23T01:19:21;12.57;;;9.30;;
35745;SDS011;21870;42.812;74.628;2024-02-23T01:21:47;11.60;;;9.27;;
35745;SDS011;21870;42.812;74.628;2024-02-23T01:24:14;12.10;;;9.38;;
35745;SDS011;21870;42.812;74.628;2024-02-23T01:26:40;15.07;;;10.18;;
35745;SDS011;21870;42.812;74.628;2024-02-23T01:29:06;14.32;;;9.38;;
35745;SDS011;21870;42.812;74.628;2024-02-23T01:31:32;13.05;;;9.93;;
35745;SDS011;21870;42.812;74.628;2024-02-23T01:33:58;11.32;;;9.05;;
35745;SDS011;21870;42.812;74.628;2024-02-23T01:36:24;13.45;;;9.77;;
35745;SDS011;21870;42.812;74.628;2024-02-23T01:38:50;12.88;;;9.38;;
35745;SDS011;21870;42.812;74.628;2024-02-23T01:41:16;13.15;;;8.95;;
35745;SDS011;21870;42.812;74.628;2024-02-23T01:43:42;10.20;;;8.38;;
35745;SDS011;21870;42.812;74.628;2024-02-23T01:46:08;10.25;;;8.00;;
35745;SDS011;21870;42.812;74.628;2024-02-23T01:48:34;11.73;;;9.20;;
35745;SDS011;21870;42.812;74.628;2024-02-23T01:51:01;15.55;;;9.00;;
35745;SDS011;21870;42.812;74.628;2024-02-23T01:53:27;14.40;;;9.70;;
35745;SDS011;21870;42.812;74.628;2024-02-23T01:55:53;24.20;;;12.70;;
35745;SDS011;21870;42.812;74.628;2024-02-23T01:58:20;17.98;;;10.73;;
35745;SDS011;21870;42.812;74.628;2024-02-23T02:00:46;16.52;;;12.57;;
35745;SDS011;21870;42.812;74.628;2024-02-23T02:03:13;19.52;;;14.48;;
35745;SDS011;21870;42.812;74.628;2024-02-23T02:05:39;19.75;;;15.38;;
35745;SDS011;21870;42.812;74.628;2024-02-23T02:08:05;17.50;;;14.07;;
35745;SDS011;21870;42.812;74.628;2024-02-23T02:10:32;20.45;;;14.38;;
35745;SDS011;21870;42.812;74.628;2024-02-23T02:13:02;20.95;;;15.38;;
35745;SDS011;21870;42.812;74.628;2024-02-23T02:15:29;22.90;;;17.35;;
35745;SDS011;21870;42.812;74.628;2024-02-23T02:17:55;27.02;;;19.40;;
35745;SDS011;21870;42.812;74.628;2024-02-23T02:20:23;37.08;;;25.92;;
35745;SDS011;21870;42.812;74.628;2024-02-23T02:22:51;41.20;;;30.58;;
35745;SDS011;21870;42.812;74.628;2024-02-23T02:25:18;48.42;;;32.40;;
35745;SDS011;21870;42.812;74.628;2024-02-23T02:27:44;50.67;;;33.83;;
35745;SDS011;21870;42.812;74.628;2024-02-23T02:30:13;41.55;;;29.25;;
35745;SDS011;21870;42.812;74.628;2024-02-23T02:32:39;42.08;;;26.60;;
35745;SDS011;21870;42.812;74.628;2024-02-23T02:35:05;38.28;;;28.23;;
35745;SDS011;21870;42.812;74.628;2024-02-23T02:37:32;37.38;;;26.23;;
35745;SDS011;21870;42.812;74.628;2024-02-23T02:39:58;34.17;;;25.98;;
35745;SDS011;21870;42.812;74.628;2024-02-23T02:42:24;34.90;;;25.98;;
35745;SDS011;21870;42.812;74.628;2024-02-23T02:44:50;32.30;;;22.55;;
35745;SDS011;21870;42.812;74.628;2024-02-23T02:47:16;32.33;;;20.95;;
35745;SDS011;21870;42.812;74.628;2024-02-23T02:49:42;34.80;;;22.13;;
35745;SDS011;21870;42.812;74.628;2024-02-23T02:52:08;30.02;;;20.77;;
35745;SDS011;21870;42.812;74.628;2024-02-23T02:54:34;32.78;;;22.10;;
35745;SDS011;21870;42.812;74.628;2024-02-23T02:57:00;33.47;;;25.42;;
35745;SDS011;21870;42.812;74.628;2024-02-23T02:59:26;30.08;;;20.65;;
35745;SDS011;21870;42.812;74.628;2024-02-23T03:01:52;28.85;;;21.30;;
35745;SDS011;21870;42.812;74.628;2024-02-23T03:04:18;35.65;;;22.67;;
35745;SDS011;21870;42.812;74.628;2024-02-23T03:06:44;30.25;;;20.98;;
35745;SDS011;21870;42.812;74.628;2024-02-23T03:09:10;28.60;;;21.38;;
35745;SDS011;21870;42.812;74.628;2024-02-23T03:11:38;29.17;;;20.08;;
35745;SDS011;21870;42.812;74.628;2024-02-23T03:14:05;22.35;;;16.80;;
35745;SDS011;21870;42.812;74.628;2024-02-23T03:16:31;24.38;;;17.63;;
35745;SDS011;21870;42.812;74.628;2024-02-23T03:18:59;37.45;;;24.98;;
35745;SDS011;21870;42.812;74.628;2024-02-23T03:21:28;45.13;;;29.30;;
35745;SDS011;21870;42.812;74.628;2024-02-23T03:23:54;58.47;;;37.22;;
35745;SDS011;21870;42.812;74.628;2024-02-23T03:26:20;45.17;;;30.10;;
35745;SDS011;21870;42.812;74.628;2024-02-23T03:28:46;41.85;;;28.80;;
35745;SDS011;21870;42.812;74.628;2024-02-23T03:31:13;51.67;;;34.00;;
35745;SDS011;21870;42.812;74.628;2024-02-23T03:33:40;51.00;;;35.88;;
35745;SDS011;21870;42.812;74.628;2024-02-23T03:36:06;46.03;;;33.08;;
35745;SDS011;21870;42.812;74.628;2024-02-23T03:38:32;36.30;;;26.50;;
35745;SDS011;21870;42.812;74.628;2024-02-23T03:40:59;32.85;;;23.25;;
35745;SDS011;21870;42.812;74.628;2024-02-23T03:43:26;31.33;;;23.85;;
35745;SDS011;21870;42.812;74.628;2024-02-23T03:45:52;39.35;;;26.05;;
35745;SDS011;21870;42.812;74.628;2024-02-23T03:48:18;53.17;;;36.95;;
35745;SDS011;21870;42.812;74.628;2024-02-23T03:50:45;35.50;;;27.63;;
35745;SDS011;21870;42.812;74.628;2024-02-23T03:53:11;33.58;;;24.48;;
35745;SDS011;21870;42.812;74.628;2024-02-23T03:55:37;37.08;;;23.45;;
35745;SDS011;21870;42.812;74.628;2024-02-23T03:58:03;36.72;;;26.55;;
35745;SDS011;21870;42.812;74.628;2024-02-23T04:00:29;33.53;;;25.70;;
35745;SDS011;21870;42.812;74.628;2024-02-23T04:02:56;41.13;;;27.45;;
35745;SDS011;21870;42.812;74.628;2024-02-23T04:05:22;37.75;;;27.77;;
35745;SDS011;21870;42.812;74.628;2024-02-23T04:07:48;37.80;;;28.65;;
35745;SDS011;21870;42.812;74.628;2024-02-23T04:10:14;41.60;;;29.40;;
35745;SDS011;21870;42.812;74.628;2024-02-23T04:12:46;33.63;;;24.02;;
35745;SDS011;21870;42.812;74.628;2024-02-23T04:15:12;32.97;;;21.60;;
35745;SDS011;21870;42.812;74.628;2024-02-23T04:17:38;26.48;;;18.95;;
35745;SDS011;21870;42.812;74.628;2024-02-23T04:20:08;24.48;;;18.25;;
35745;SDS011;21870;42.812;74.628;2024-02-23T04:22:37;27.85;;;20.00;;
35745;SDS011;21870;42.812;74.628;2024-02-23T04:25:03;21.35;;;15.95;;
35745;SDS011;21870;42.812;74.628;2024-02-23T04:27:30;23.23;;;16.40;;
35745;SDS011;21870;42.812;74.628;2024-02-23T04:29:56;19.35;;;15.30;;
35745;SDS011;21870;42.812;74.628;2024-02-23T04:32:22;21.30;;;16.80;;
35745;SDS011;21870;42.812;74.628;2024-02-23T04:34:48;24.20;;;17.38;;
35745;SDS011;21870;42.812;74.628;2024-02-23T04:37:14;23.65;;;16.55;;
35745;SDS011;21870;42.812;74.628;2024-02-23T04:39:43;25.15;;;17.65;;
35745;SDS011;21870;42.812;74.628;2024-02-23T04:42:09;30.48;;;20.80;;
35745;SDS011;21870;42.812;74.628;2024-02-23T04:44:35;24.75;;;17.52;;
35745;SDS011;21870;42.812;74.628;2024-02-23T04:47:02;20.58;;;16.42;;
35745;SDS011;21870;42.812;74.628;2024-02-23T04:49:28;22.95;;;17.05;;
35745;SDS011;21870;42.812;74.628;2024-02-23T04:51:54;20.10;;;14.85;;
35745;SDS011;21870;42.812;74.628;2024-02-23T04:54:20;21.67;;;14.70;;
35745;SDS011;21870;42.812;74.628;2024-02-23T04:56:46;18.42;;;12.82;;
35745;SDS011;21870;42.812;74.628;2024-02-23T04:59:13;16.83;;;12.48;;
35745;SDS011;21870;42.812;74.628;2024-02-23T05:01:39;19.92;;;12.90;;
35745;SDS011;21870;42.812;74.628;2024-02-23T05:04:06;19.67;;;13.15;;
35745;SDS011;21870;42.812;74.628;2024-02-23T05:06:32;19.48;;;13.15;;
35745;SDS011;21870;42.812;74.628;2024-02-23T05:08:58;16.85;;;13.70;;
35745;SDS011;21870;42.812;74.628;2024-02-23T05:11:24;13.73;;;12.25;;
35745;SDS011;21870;42.812;74.628;2024-02-23T05:13:50;18.17;;;11.82;;
35745;SDS011;21870;42.812;74.628;2024-02-23T05:16:16;14.48;;;11.45;;
35745;SDS011;21870;42.812;74.628;2024-02-23T05:18:43;19.63;;;13.40;;
35745;SDS011;21870;42.812;74.628;2024-02-23T05:21:10;17.67;;;12.50;;
35745;SDS011;21870;42.812;74.628;2024-02-23T05:23:36;14.70;;;11.82;;
35745;SDS011;21870;42.812;74.628;2024-02-23T05:26:02;11.43;;;9.70;;
35745;SDS011;21870;42.812;74.628;2024-02-23T05:28:28;19.50;;;13.23;;
35745;SDS011;21870;42.812;74.628;2024-02-23T05:30:54;17.73;;;12.13;;
35745;SDS011;21870;42.812;74.628;2024-02-23T05:33:21;16.38;;;11.57;;
35745;SDS011;21870;42.812;74.628;2024-02-23T05:35:48;18.52;;;13.43;;
35745;SDS011;21870;42.812;74.628;2024-02-23T05:38:14;16.83;;;12.13;;
35745;SDS011;21870;42.812;74.628;2024-02-23T05:40:40;14.05;;;11.52;;
35745;SDS011;21870;42.812;74.628;2024-02-23T05:43:06;14.00;;;11.88;;
35745;SDS011;21870;42.812;74.628;2024-02-23T05:45:32;18.25;;;12.05;;
35745;SDS011;21870;42.812;74.628;2024-02-23T05:47:58;13.82;;;10.52;;
35745;SDS011;21870;42.812;74.628;2024-02-23T05:50:24;15.55;;;10.40;;
35745;SDS011;21870;42.812;74.628;2024-02-23T05:52:51;13.65;;;9.80;;
35745;SDS011;21870;42.812;74.628;2024-02-23T05:55:20;12.57;;;9.82;;
35745;SDS011;21870;42.812;74.628;2024-02-23T05:57:46;15.70;;;8.88;;
35745;SDS011;21870;42.812;74.628;2024-02-23T06:00:12;10.25;;;9.10;;
35745;SDS011;21870;42.812;74.628;2024-02-23T06:02:39;13.07;;;10.27;;
35745;SDS011;21870;42.812;74.628;2024-02-23T06:05:06;12.75;;;9.82;;
35745;SDS011;21870;42.812;74.628;2024-02-23T06:07:33;14.05;;;9.05;;
35745;SDS011;21870;42.812;74.628;2024-02-23T06:10:00;11.60;;;9.98;;
35745;SDS011;21870;42.812;74.628;2024-02-23T06:12:26;12.98;;;8.02;;
35745;SDS011;21870;42.812;74.628;2024-02-23T06:14:52;9.88;;;7.70;;
35745;SDS011;21870;42.812;74.628;2024-02-23T06:17:20;9.05;;;7.78;;
35745;SDS011;21870;42.812;74.628;2024-02-23T06:19:47;11.88;;;9.05;;
35745;SDS011;21870;42.812;74.628;2024-02-23T06:22:14;11.55;;;9.75;;
35745;SDS011;21870;42.812;74.628;2024-02-23T06:24:42;12.68;;;9.23;;
35745;SDS011;21870;42.812;74.628;2024-02-23T06:27:08;12.90;;;8.90;;
35745;SDS011;21870;42.812;74.628;2024-02-23T06:29:35;15.43;;;9.00;;
35745;SDS011;21870;42.812;74.628;2024-02-23T06:32:01;10.45;;;9.35;;
35745;SDS011;21870;42.812;74.628;2024-02-23T06:34:28;10.95;;;8.05;;
35745;SDS011;21870;42.812;74.628;2024-02-23T06:36:54;13.57;;;9.48;;
35745;SDS011;21870;42.812;74.628;2024-02-23T06:39:20;11.88;;;10.20;;
35745;SDS011;21870;42.812;74.628;2024-02-23T06:41:46;9.50;;;8.25;;
35745;SDS011;21870;42.812;74.628;2024-02-23T06:44:12;11.57;;;9.60;;
35745;SDS011;21870;42.812;74.628;2024-02-23T06:46:38;13.98;;;10.60;;
35745;SDS011;21870;42.812;74.628;2024-02-23T06:49:04;14.25;;;10.95;;
35745;SDS011;21870;42.812;74.628;2024-02-23T06:51:33;15.27;;;11.18;;
35745;SDS011;21870;42.812;74.628;2024-02-23T06:53:59;11.10;;;9.15;;
35745;SDS011;21870;42.812;74.628;2024-02-23T06:56:25;12.65;;;11.30;;
35745;SDS011;21870;42.812;74.628;2024-02-23T06:58:51;9.23;;;8.32;;
35745;SDS011;21870;42.812;74.628;2024-02-23T07:01:19;14.18;;;11.15;;
35745;SDS011;21870;42.812;74.628;2024-02-23T07:03:45;15.13;;;10.75;;
35745;SDS011;21870;42.812;74.628;2024-02-23T07:06:14;16.95;;;12.23;;
35745;SDS011;21870;42.812;74.628;2024-02-23T07:08:43;11.75;;;9.63;;
35745;SDS011;21870;42.812;74.628;2024-02-23T07:11:10;17.85;;;12.75;;
35745;SDS011;21870;42.812;74.628;2024-02-23T07:13:36;13.77;;;10.88;;
35745;SDS011;21870;42.812;74.628;2024-02-23T07:16:02;11.18;;;10.02;;
35745;SDS011;21870;42.812;74.628;2024-02-23T07:18:29;16.38;;;12.52;;
35745;SDS011;21870;42.812;74.628;2024-02-23T07:20:55;12.32;;;10.73;;
35745;SDS011;21870;42.812;74.628;2024-02-23T07:23:21;12.85;;;10.77;;
35745;SDS011;21870;42.812;74.628;2024-02-23T07:25:48;14.25;;;11.10;;
35745;SDS011;21870;42.812;74.628;2024-02-23T07:28:16;14.88;;;11.57;;
35745;SDS011;21870;42.812;74.628;2024-02-23T07:30:47;15.10;;;13.05;;
35745;SDS011;21870;42.812;74.628;2024-02-23T07:33:13;15.77;;;12.65;;
35745;SDS011;21870;42.812;74.628;2024-02-23T07:35:40;17.55;;;13.70;;
35745;SDS011;21870;42.812;74.628;2024-02-23T07:38:06;15.75;;;12.98;;
35745;SDS011;21870;42.812;74.628;2024-02-23T07:40:32;13.63;;;11.35;;
35745;SDS011;21870;42.812;74.628;2024-02-23T07:42:58;14.77;;;11.30;;
35745;SDS011;21870;42.812;74.628;2024-02-23T07:45:24;15.32;;;11.50;;
35745;SDS011;21870;42.812;74.628;2024-02-23T07:47:51;17.17;;;12.32;;
35745;SDS011;21870;42.812;74.628;2024-02-23T07:50:17;14.65;;;11.35;;
35745;SDS011;21870;42.812;74.628;2024-02-23T07:52:44;13.10;;;10.63;;
35745;SDS011;21870;42.812;74.628;2024-02-23T07:55:10;11.48;;;9.65;;
35745;SDS011;21870;42.812;74.628;2024-02-23T07:57:36;17.88;;;12.98;;
35745;SDS011;21870;42.812;74.628;2024-02-23T08:00:05;14.20;;;11.27;;
35745;SDS011;21870;42.812;74.628;2024-02-23T08:02:34;11.30;;;10.15;;
35745;SDS011;21870;42.812;74.628;2024-02-23T08:05:01;13.57;;;9.60;;
35745;SDS011;21870;42.812;74.628;2024-02-23T08:07:27;10.48;;;8.98;;
35745;SDS011;21870;42.812;74.628;2024-02-23T08:09:56;10.68;;;8.57;;
35745;SDS011;21870;42.812;74.628;2024-02-23T08:12:22;10.32;;;8.80;;
35745;SDS011;21870;42.812;74.628;2024-02-23T08:14:48;16.42;;;10.77;;
35745;SDS011;21870;42.812;74.628;2024-02-23T08:17:18;12.90;;;9.05;;
35745;SDS011;21870;42.812;74.628;2024-02-23T08:19:44;11.75;;;9.48;;
35745;SDS011;21870;42.812;74.628;2024-02-23T08:22:11;11.45;;;10.25;;
35745;SDS011;21870;42.812;74.628;2024-02-23T08:24:37;13.38;;;10.00;;
35745;SDS011;21870;42.812;74.628;2024-02-23T08:27:03;14.13;;;10.45;;
35745;SDS011;21870;42.812;74.628;2024-02-23T08:29:29;13.63;;;11.68;;
35745;SDS011;21870;42.812;74.628;2024-02-23T08:31:55;17.00;;;13.60;;
35745;SDS011;21870;42.812;74.628;2024-02-23T08:34:21;18.60;;;13.27;;
35745;SDS011;21870;42.812;74.628;2024-02-23T08:36:47;15.90;;;13.20;;
35745;SDS011;21870;42.812;74.628;2024-02-23T08:39:13;16.88;;;15.18;;
35745;SDS011;21870;42.812;74.628;2024-02-23T08:41:40;15.43;;;13.55;;
35745;SDS011;21870;42.812;74.628;2024-02-23T08:44:06;18.00;;;14.00;;
35745;SDS011;21870;42.812;74.628;2024-02-23T08:46:32;19.85;;;14.52;;
35745;SDS011;21870;42.812;74.628;2024-02-23T08:48:58;15.57;;;13.88;;
35745;SDS011;21870;42.812;74.628;2024-02-23T08:51:24;19.63;;;15.75;;
35745;SDS011;21870;42.812;74.628;2024-02-23T08:53:50;22.75;;;17.08;;
35745;SDS011;21870;42.812;74.628;2024-02-23T08:56:16;22.42;;;17.80;;
35745;SDS011;21870;42.812;74.628;2024-02-23T08:58:42;24.88;;;18.55;;
35745;SDS011;21870;42.812;74.628;2024-02-23T09:01:08;32.53;;;18.60;;
35745;SDS011;21870;42.812;74.628;2024-02-23T09:03:34;19.38;;;15.70;;
35745;SDS011;21870;42.812;74.628;2024-02-23T09:06:00;24.55;;;18.45;;
35745;SDS011;21870;42.812;74.628;2024-02-23T09:08:26;30.80;;;20.50;;
35745;SDS011;21870;42.812;74.628;2024-02-23T09:10:52;30.52;;;20.13;;
35745;SDS011;21870;42.812;74.628;2024-02-23T09:13:19;24.38;;;17.80;;
35745;SDS011;21870;42.812;74.628;2024-02-23T09:15:45;28.55;;;21.75;;
35745;SDS011;21870;42.812;74.628;2024-02-23T09:18:11;37.80;;;24.15;;
35745;SDS011;21870;42.812;74.628;2024-02-23T09:20:37;37.85;;;23.77;;
35745;SDS011;21870;42.812;74.628;2024-02-23T09:23:03;33.67;;;22.05;;
35745;SDS011;21870;42.812;74.628;2024-02-23T09:25:29;28.08;;;21.38;;
35745;SDS011;21870;42.812;74.628;2024-02-23T09:27:58;30.45;;;21.45;;
35745;SDS011;21870;42.812;74.628;2024-02-23T09:30:24;34.28;;;22.02;;
35745;SDS011;21870;42.812;74.628;2024-02-23T09:32:51;30.30;;;21.23;;
35745;SDS011;21870;42.812;74.628;2024-02-23T09:35:17;24.88;;;19.70;;
35745;SDS011;21870;42.812;74.628;2024-02-23T09:37:43;27.38;;;18.95;;
35745;SDS011;21870;42.812;74.628;2024-02-23T09:40:09;22.67;;;17.27;;
35745;SDS011;21870;42.812;74.628;2024-02-23T09:42:35;27.85;;;22.65;;
35745;SDS011;21870;42.812;74.628;2024-02-23T09:45:03;33.67;;;28.23;;
35745;SDS011;21870;42.812;74.628;2024-02-23T09:47:31;42.38;;;31.58;;
35745;SDS011;21870;42.812;74.628;2024-02-23T09:49:57;38.83;;;34.78;;
35745;SDS011;21870;42.812;74.628;2024-02-23T09:52:26;39.72;;;35.30;;
35745;SDS011;21870;42.812;74.628;2024-02-23T09:54:54;43.22;;;36.33;;
35745;SDS011;21870;42.812;74.628;2024-02-23T09:57:20;44.95;;;40.00;;
35745;SDS011;21870;42.812;74.628;2024-02-23T09:59:48;48.17;;;40.72;;
35745;SDS011;21870;42.812;74.628;2024-02-23T10:02:17;61.40;;;51.03;;
35745;SDS011;21870;42.812;74.628;2024-02-23T10:04:43;57.28;;;50.17;;
35745;SDS011;21870;42.812;74.628;2024-02-23T10:07:10;62.30;;;53.15;;
35745;SDS011;21870;42.812;74.628;2024-02-23T10:09:39;58.03;;;50.72;;
35745;SDS011;21870;42.812;74.628;2024-02-23T10:12:05;58.13;;;47.92;;
35745;SDS011;21870;42.812;74.628;2024-02-23T10:14:32;57.40;;;47.47;;
35745;SDS011;21870;42.812;74.628;2024-02-23T10:16:58;55.70;;;46.45;;
35745;SDS011;21870;42.812;74.628;2024-02-23T10:19:24;51.13;;;44.58;;
35745;SDS011;21870;42.812;74.628;2024-02-23T10:21:55;49.47;;;42.92;;
35745;SDS011;21870;42.812;74.628;2024-02-23T10:24:24;52.67;;;41.45;;
35745;SDS011;21870;42.812;74.628;2024-02-23T10:26:51;48.13;;;38.20;;
35745;SDS011;21870;42.812;74.628;2024-02-23T10:29:18;42.45;;;35.28;;
35745;SDS011;21870;42.812;74.628;2024-02-23T10:31:45;50.72;;;38.08;;
35745;SDS011;21870;42.812;74.628;2024-02-23T10:34:17;43.92;;;35.85;;
35745;SDS011;21870;42.812;74.628;2024-02-23T10:36:46;41.92;;;35.20;;
35745;SDS011;21870;42.812;74.628;2024-02-23T10:39:16;38.47;;;33.05;;
35745;SDS011;21870;42.812;74.628;2024-02-23T10:41:46;44.10;;;33.05;;
35745;SDS011;21870;42.812;74.628;2024-02-23T10:44:18;37.05;;;31.90;;
35745;SDS011;21870;42.812;74.628;2024-02-23T10:46:44;38.42;;;31.67;;
35745;SDS011;21870;42.812;74.628;2024-02-23T10:49:12;36.33;;;30.83;;
35745;SDS011;21870;42.812;74.628;2024-02-23T10:51:40;35.03;;;29.23;;
35745;SDS011;21870;42.812;74.628;2024-02-23T10:54:07;33.22;;;26.60;;
35745;SDS011;21870;42.812;74.628;2024-02-23T10:56:34;33.53;;;27.67;;
35745;SDS011;21870;42.812;74.628;2024-02-23T10:59:00;36.90;;;28.60;;
35745;SDS011;21870;42.812;74.628;2024-02-23T11:01:30;36.53;;;28.17;;
35745;SDS011;21870;42.812;74.628;2024-02-23T11:03:58;33.72;;;27.63;;
35745;SDS011;21870;42.812;74.628;2024-02-23T11:06:28;38.92;;;29.48;;
35745;SDS011;21870;42.812;74.628;2024-02-23T11:09:04;44.83;;;35.05;;
35745;SDS011;21870;42.812;74.628;2024-02-23T11:11:32;41.22;;;33.42;;
35745;SDS011;21870;42.812;74.628;2024-02-23T11:13:59;43.00;;;34.72;;
35745;SDS011;21870;42.812;74.628;2024-02-23T11:16:32;53.08;;;42.92;;
35745;SDS011;21870;42.812;74.628;2024-02-23T11:19:05;53.03;;;41.78;;
35745;SDS011;21870;42.812;74.628;2024-02-23T11:21:36;46.25;;;41.22;;
35745;SDS011;21870;42.812;74.628;2024-02-23T11:24:06;52.45;;;41.45;;
35745;SDS011;21870;42.812;74.628;2024-02-23T11:26:32;51.13;;;39.88;;
35745;SDS011;21870;42.812;74.628;2024-02-23T11:29:09;51.60;;;40.22;;
35745;SDS011;21870;42.812;74.628;2024-02-23T11:31:36;56.45;;;44.22;;
35745;SDS011;21870;42.812;74.628;2024-02-23T11:34:11;53.85;;;42.15;;
35745;SDS011;21870;42.812;74.628;2024-02-23T11:36:38;53.67;;;42.63;;
35745;SDS011;21870;42.812;74.628;2024-02-23T11:39:04;51.63;;;42.72;;
35745;SDS011;21870;42.812;74.628;2024-02-23T11:41:31;53.25;;;44.15;;
35745;SDS011;21870;42.812;74.628;2024-02-23T11:43:57;51.17;;;42.53;;
35745;SDS011;21870;42.812;74.628;2024-02-23T11:46:28;51.55;;;42.28;;
35745;SDS011;21870;42.812;74.628;2024-02-23T11:48:54;53.42;;;43.05;;
35745;SDS011;21870;42.812;74.628;2024-02-23T11:51:20;54.45;;;47.10;;
35745;SDS011;21870;42.812;74.628;2024-02-23T11:53:52;61.78;;;45.42;;
35745;SDS011;21870;42.812;74.628;2024-02-23T11:56:18;62.13;;;45.88;;
35745;SDS011;21870;42.812;74.628;2024-02-23T11:58:46;65.72;;;49.47;;
35745;SDS011;21870;42.812;74.628;2024-02-23T12:01:12;53.80;;;44.53;;
35745;SDS011;21870;42.812;74.628;2024-02-23T12:03:38;54.13;;;45.92;;
35745;SDS011;21870;42.812;74.628;2024-02-23T12:06:04;61.42;;;45.90;;
35745;SDS011;21870;42.812;74.628;2024-02-23T12:08:32;54.33;;;43.50;;
35745;SDS011;21870;42.812;74.628;2024-02-23T12:11:03;52.85;;;44.97;;
35745;SDS011;21870;42.812;74.628;2024-02-23T12:13:30;55.28;;;42.08;;
35745;SDS011;21870;42.812;74.628;2024-02-23T12:15:57;51.33;;;44.15;;
35745;SDS011;21870;42.812;74.628;2024-02-23T12:18:23;60.78;;;40.67;;
35745;SDS011;21870;42.812;74.628;2024-02-23T12:21:15;52.17;;;42.05;;
35745;SDS011;21870;42.812;74.628;2024-02-23T12:23:45;50.97;;;40.58;;
35745;SDS011;21870;42.812;74.628;2024-02-23T12:26:13;42.22;;;36.33;;
35745;SDS011;21870;42.812;74.628;2024-02-23T12:28:41;44.92;;;36.42;;
35745;SDS011;21870;42.812;74.628;2024-02-23T12:31:08;46.05;;;37.33;;
35745;SDS011;21870;42.812;74.628;2024-02-23T12:33:35;39.13;;;33.20;;
35745;SDS011;21870;42.812;74.628;2024-02-23T12:36:05;40.20;;;34.00;;
35745;SDS011;21870;42.812;74.628;2024-02-23T12:38:32;44.90;;;36.20;;
35745;SDS011;21870;42.812;74.628;2024-02-23T12:41:01;41.97;;;37.13;;
35745;SDS011;21870;42.812;74.628;2024-02-23T12:43:30;47.65;;;40.00;;
35745;SDS011;21870;42.812;74.628;2024-02-23T12:45:57;43.67;;;37.45;;
35745;SDS011;21870;42.812;74.628;2024-02-23T12:48:23;46.38;;;38.85;;
35745;SDS011;21870;42.812;74.628;2024-02-23T12:50:50;45.83;;;36.65;;
35745;SDS011;21870;42.812;74.628;2024-02-23T12:53:35;43.95;;;35.40;;
35745;SDS011;21870;42.812;74.628;2024-02-23T12:56:04;50.03;;;40.63;;
35745;SDS011;21870;42.812;74.628;2024-02-23T12:58:37;49.15;;;39.80;;
35745;SDS011;21870;42.812;74.628;2024-02-23T13:01:04;43.28;;;37.28;;
35745;SDS011;21870;42.812;74.628;2024-02-23T13:03:32;42.95;;;35.90;;
35745;SDS011;21870;42.812;74.628;2024-02-23T13:05:59;45.35;;;40.15;;
35745;SDS011;21870;42.812;74.628;2024-02-23T13:08:25;49.42;;;39.95;;
35745;SDS011;21870;42.812;74.628;2024-02-23T13:10:52;39.97;;;35.65;;
35745;SDS011;21870;42.812;74.628;2024-02-23T13:13:19;48.80;;;39.88;;
35745;SDS011;21870;42.812;74.628;2024-02-23T13:15:46;50.00;;;41.97;;
35745;SDS011;21870;42.812;74.628;2024-02-23T13:18:14;53.78;;;43.47;;
35745;SDS011;21870;42.812;74.628;2024-02-23T13:20:40;56.95;;;45.20;;
35745;SDS011;21870;42.812;74.628;2024-02-23T13:23:07;63.05;;;46.00;;
35745;SDS011;21870;42.812;74.628;2024-02-23T13:25:37;59.42;;;44.65;;
35745;SDS011;21870;42.812;74.628;2024-02-23T13:28:04;49.03;;;40.17;;
35745;SDS011;21870;42.812;74.628;2024-02-23T13:30:31;55.83;;;41.13;;
35745;SDS011;21870;42.812;74.628;2024-02-23T13:32:57;46.92;;;39.83;;
35745;SDS011;21870;42.812;74.628;2024-02-23T13:35:23;49.55;;;44.17;;
35745;SDS011;21870;42.812;74.628;2024-02-23T13:37:50;49.65;;;42.55;;
35745;SDS011;21870;42.812;74.628;2024-02-23T13:40:16;48.83;;;40.72;;
35745;SDS011;21870;42.812;74.628;2024-02-23T13:42:42;44.22;;;38.42;;
35745;SDS011;21870;42.812;74.628;2024-02-23T13:45:11;43.38;;;37.40;;
35745;SDS011;21870;42.812;74.628;2024-02-23T13:47:39;45.35;;;38.63;;
35745;SDS011;21870;42.812;74.628;2024-02-23T13:50:06;44.70;;;39.15;;
35745;SDS011;21870;42.812;74.628;2024-02-23T13:52:33;41.17;;;36.67;;
35745;SDS011;21870;42.812;74.628;2024-02-23T13:54:59;37.30;;;33.22;;
35745;SDS011;21870;42.812;74.628;2024-02-23T13:57:26;45.35;;;36.33;;
35745;SDS011;21870;42.812;74.628;2024-02-23T13:59:52;34.70;;;30.90;;
35745;SDS011;21870;42.812;74.628;2024-02-23T14:02:24;39.72;;;32.78;;
35745;SDS011;21870;42.812;74.628;2024-02-23T14:04:59;38.83;;;33.72;;
35745;SDS011;21870;42.812;74.628;2024-02-23T14:07:32;41.58;;;32.97;;
35745;SDS011;21870;42.812;74.628;2024-02-23T14:09:58;38.72;;;30.80;;